Time;durP1;ratioP1;P1;durP2;ratioP2;P2;SDS_P1;SDS_P2;PMS_P1;PMS_P2;Temp;Humidity;BMP_temperature;BMP_pressure;BME280_temperature;BME280_humidity;BME280_pressure;Samples;Min_cycle;Max_cycle;Signal;HPM_P1;HPM_P2
2021/09/10 00:01:58;;;;;;;20.23;11.85;;;;;;;;;;5014007;28;20481;-62
2021/09/10 00:04:24;;;;;;;19.90;11.18;;;;;;;;;;5014376;28;20480;-62
2021/09/10 00:06:50;;;;;;;20.52;11.60;;;;;;;;;;5013984;28;20036;-62
2021/09/10 00:09:15;;;;;;;27.25;11.88;;;;;;;;;;5013736;28;20034;-62
2021/09/10 00:11:40;;;;;;;15.13;11.60;;;;;;;;;;5013844;28;20080;-62
2021/09/10 00:14:06;;;;;;;17.73;11.40;;;;;;;;;;5014225;28;20044;-62
2021/09/10 00:16:31;;;;;;;20.92;11.65;;;;;;;;;;5013602;28;20042;-62
2021/09/10 00:18:56;;;;;;;22.77;11.85;;;;;;;;;;5013032;28;20025;-62
2021/09/10 00:21:21;;;;;;;21.67;12.57;;;;;;;;;;5013721;28;20476;-63
2021/09/10 00:23:47;;;;;;;25.25;11.65;;;;;;;;;;5014398;28;20091;-62
2021/09/10 00:26:12;;;;;;;18.08;12.23;;;;;;;;;;5013696;28;20440;-63
2021/09/10 00:28:37;;;;;;;15.85;11.20;;;;;;;;;;5014030;28;20029;-62
2021/09/10 00:31:03;;;;;;;22.15;12.45;;;;;;;;;;5012440;28;20037;-63
2021/09/10 00:33:28;;;;;;;17.40;11.30;;;;;;;;;;5013885;28;20018;-63
2021/09/10 00:35:54;;;;;;;20.45;11.52;;;;;;;;;;5013367;28;20044;-62
2021/09/10 00:38:19;;;;;;;22.65;11.90;;;;;;;;;;5012884;28;20112;-62
2021/09/10 00:40:45;;;;;;;20.35;11.95;;;;;;;;;;5013599;28;20388;-62
2021/09/10 00:43:10;;;;;;;18.02;11.85;;;;;;;;;;5012561;28;20440;-62
2021/09/10 00:45:35;;;;;;;19.77;11.40;;;;;;;;;;5013387;28;20034;-62
2021/09/10 00:48:00;;;;;;;19.38;12.18;;;;;;;;;;5012274;28;20030;-62
2021/09/10 00:50:26;;;;;;;17.02;10.80;;;;;;;;;;5011873;28;20021;-63
2021/09/10 00:52:51;;;;;;;16.98;10.82;;;;;;;;;;4996158;28;20026;-62
2021/09/10 00:55:25;;;;;;;21.95;11.30;;;;;;;;;;5012000;28;20013;-62
2021/09/10 00:57:51;;;;;;;17.27;11.68;;;;;;;;;;5013505;28;20118;-62
2021/09/10 01:00:16;;;;;;;25.63;12.40;;;;;;;;;;5011933;28;20104;-62
2021/09/10 01:02:41;;;;;;;20.17;10.98;;;;;;;;;;5013302;28;20022;-62
2021/09/10 01:05:07;;;;;;;22.95;12.48;;;;;;;;;;5013331;28;20034;-63
2021/09/10 01:07:32;;;;;;;22.30;12.57;;;;;;;;;;5013643;28;20423;-62
2021/09/10 01:09:57;;;;;;;22.23;11.70;;;;;;;;;;5013187;28;20050;-62
2021/09/10 01:12:22;;;;;;;21.08;12.50;;;;;;;;;;5012873;28;20237;-64
2021/09/10 01:14:48;;;;;;;23.77;12.18;;;;;;;;;;5013185;28;20026;-62
2021/09/10 01:17:13;;;;;;;24.23;12.13;;;;;;;;;;5011300;28;20099;-62
2021/09/10 01:19:39;;;;;;;17.10;12.20;;;;;;;;;;5013385;28;20108;-62
2021/09/10 01:22:05;;;;;;;21.83;11.95;;;;;;;;;;5011399;28;20034;-62
2021/09/10 01:24:30;;;;;;;16.73;10.95;;;;;;;;;;5013057;28;20102;-62
2021/09/10 01:26:55;;;;;;;15.95;10.93;;;;;;;;;;5012835;28;20034;-62
2021/09/10 01:29:20;;;;;;;21.63;11.90;;;;;;;;;;5012704;28;20532;-62
2021/09/10 01:31:46;;;;;;;20.13;11.38;;;;;;;;;;5012647;28;20060;-62
2021/09/10 01:34:11;;;;;;;17.02;11.25;;;;;;;;;;5012972;28;20028;-62
2021/09/10 01:36:36;;;;;;;19.52;11.85;;;;;;;;;;5012504;28;20045;-62
2021/09/10 01:39:02;;;;;;;18.60;12.07;;;;;;;;;;5013118;28;20029;-63
2021/09/10 01:41:27;;;;;;;18.95;11.52;;;;;;;;;;5012593;28;20034;-62
2021/09/10 01:43:52;;;;;;;15.90;11.57;;;;;;;;;;5012869;28;20022;-62
2021/09/10 01:46:17;;;;;;;18.02;10.98;;;;;;;;;;5011186;28;20049;-62
2021/09/10 01:48:42;;;;;;;18.95;11.30;;;;;;;;;;5012857;28;20022;-62
2021/09/10 01:51:08;;;;;;;17.98;11.02;;;;;;;;;;5012659;28;20545;-63
2021/09/10 01:53:33;;;;;;;17.85;11.77;;;;;;;;;;5012972;28;20439;-62
2021/09/10 01:55:58;;;;;;;18.98;11.95;;;;;;;;;;5012510;28;20034;-62
2021/09/10 01:58:23;;;;;;;18.35;11.20;;;;;;;;;;5011655;28;20588;-62
2021/09/10 02:00:50;;;;;;;15.57;11.48;;;;;;;;;;5011149;28;20389;-62
2021/09/10 02:03:15;;;;;;;21.33;12.27;;;;;;;;;;5012703;28;20460;-62
2021/09/10 02:05:40;;;;;;;23.50;11.77;;;;;;;;;;5012192;28;20041;-62
2021/09/10 02:08:05;;;;;;;15.70;11.68;;;;;;;;;;5012751;28;20018;-62
2021/09/10 02:10:30;;;;;;;17.23;11.93;;;;;;;;;;5011617;28;20042;-62
2021/09/10 02:12:56;;;;;;;14.93;11.48;;;;;;;;;;5012560;28;20025;-62
2021/09/10 02:15:22;;;;;;;17.98;11.10;;;;;;;;;;5012164;28;20034;-63
2021/09/10 02:17:47;;;;;;;18.83;11.68;;;;;;;;;;5012425;28;20474;-62
2021/09/10 02:20:12;;;;;;;23.08;11.80;;;;;;;;;;5012159;28;20014;-62
2021/09/10 02:22:37;;;;;;;18.95;11.52;;;;;;;;;;5012537;28;20084;-62
2021/09/10 02:25:03;;;;;;;17.83;10.70;;;;;;;;;;5012269;28;20026;-62
2021/09/10 02:27:28;;;;;;;23.42;11.77;;;;;;;;;;5011426;28;20064;-62
2021/09/10 02:29:53;;;;;;;17.88;10.75;;;;;;;;;;5012564;28;20384;-63
2021/09/10 02:32:19;;;;;;;17.20;11.02;;;;;;;;;;5011981;28;20385;-63
2021/09/10 02:34:44;;;;;;;21.50;11.18;;;;;;;;;;5012451;28;20080;-63
2021/09/10 02:37:10;;;;;;;20.50;11.40;;;;;;;;;;5011938;28;20100;-62
2021/09/10 02:39:35;;;;;;;18.05;11.65;;;;;;;;;;5012406;28;20056;-62
2021/09/10 02:42:01;;;;;;;23.45;12.48;;;;;;;;;;5013756;28;20041;-63
2021/09/10 02:44:26;;;;;;;18.45;12.38;;;;;;;;;;5015994;28;20074;-62
2021/09/10 02:46:53;;;;;;;20.25;11.95;;;;;;;;;;5014115;28;20369;-62
2021/09/10 02:49:18;;;;;;;19.65;11.93;;;;;;;;;;5015976;28;20076;-62
2021/09/10 02:51:43;;;;;;;22.10;12.93;;;;;;;;;;5015310;28;20558;-62
2021/09/10 02:54:08;;;;;;;18.65;12.32;;;;;;;;;;5015781;28;20026;-62
2021/09/10 02:56:34;;;;;;;19.75;11.90;;;;;;;;;;5015142;28;20046;-62
2021/09/10 02:58:59;;;;;;;17.85;11.95;;;;;;;;;;5014221;28;20021;-62
2021/09/10 03:01:25;;;;;;;21.73;11.65;;;;;;;;;;5015120;28;20030;-62
2021/09/10 03:03:50;;;;;;;24.98;12.20;;;;;;;;;;5015491;28;20021;-62
2021/09/10 03:06:15;;;;;;;21.77;13.10;;;;;;;;;;5015081;28;20041;-62
2021/09/10 03:08:42;;;;;;;19.92;12.55;;;;;;;;;;5015221;28;20061;-62
2021/09/10 03:11:07;;;;;;;19.33;12.43;;;;;;;;;;5015201;28;20397;-62
2021/09/10 03:13:32;;;;;;;21.65;12.02;;;;;;;;;;5015514;28;20029;-62
2021/09/10 03:15:57;;;;;;;26.70;12.32;;;;;;;;;;5013527;28;20517;-62
2021/09/10 03:18:23;;;;;;;18.98;12.68;;;;;;;;;;5013944;28;20239;-62
2021/09/10 03:20:48;;;;;;;20.42;12.55;;;;;;;;;;5014753;28;20038;-62
2021/09/10 03:23:13;;;;;;;18.73;13.68;;;;;;;;;;5014087;28;20037;-62
2021/09/10 03:25:38;;;;;;;24.48;12.63;;;;;;;;;;5014904;28;20050;-62
2021/09/10 03:28:04;;;;;;;21.75;12.13;;;;;;;;;;5015112;28;20444;-62
2021/09/10 03:30:29;;;;;;;18.90;12.95;;;;;;;;;;5013397;28;20500;-62
2021/09/10 03:32:54;;;;;;;21.30;13.40;;;;;;;;;;5015000;28;20535;-62
2021/09/10 03:35:19;;;;;;;20.20;12.82;;;;;;;;;;5014608;28;20037;-62
2021/09/10 03:37:45;;;;;;;24.85;14.50;;;;;;;;;;5015029;28;20026;-62
2021/09/10 03:40:11;;;;;;;20.55;12.65;;;;;;;;;;5014482;28;20150;-63
2021/09/10 03:42:36;;;;;;;18.83;12.77;;;;;;;;;;5014764;28;20108;-62
2021/09/10 03:45:05;;;;;;;16.60;12.15;;;;;;;;;;5014098;28;20374;-63
2021/09/10 03:47:30;;;;;;;22.42;12.88;;;;;;;;;;5014557;28;20028;-62
2021/09/10 03:49:55;;;;;;;21.85;12.40;;;;;;;;;;5014704;28;20013;-62
2021/09/10 03:52:20;;;;;;;18.88;12.20;;;;;;;;;;5013425;28;20415;-62
2021/09/10 03:54:46;;;;;;;19.27;12.50;;;;;;;;;;5014622;28;20115;-62
2021/09/10 03:57:11;;;;;;;23.92;12.65;;;;;;;;;;5014172;28;20485;-62
2021/09/10 03:59:36;;;;;;;19.80;12.45;;;;;;;;;;5014402;28;20421;-62
2021/09/10 04:02:01;;;;;;;27.80;13.10;;;;;;;;;;5013418;28;20497;-63
2021/09/10 04:04:27;;;;;;;18.30;12.38;;;;;;;;;;5014407;28;20017;-62
2021/09/10 04:06:52;;;;;;;20.25;12.15;;;;;;;;;;5014040;28;20030;-62
2021/09/10 04:09:17;;;;;;;19.98;12.27;;;;;;;;;;5014072;28;20111;-62
2021/09/10 04:11:42;;;;;;;18.00;12.05;;;;;;;;;;5012655;28;20069;-62
2021/09/10 04:14:08;;;;;;;22.65;12.32;;;;;;;;;;5014256;28;20049;-64
2021/09/10 04:16:33;;;;;;;20.02;13.23;;;;;;;;;;5012448;28;20053;-62
2021/09/10 04:18:59;;;;;;;21.40;12.55;;;;;;;;;;5014097;28;20021;-62
2021/09/10 04:21:24;;;;;;;22.70;13.35;;;;;;;;;;5013529;28;20044;-62
2021/09/10 04:23:49;;;;;;;19.02;12.38;;;;;;;;;;5012829;28;20026;-62
2021/09/10 04:26:14;;;;;;;21.10;12.90;;;;;;;;;;5013725;28;20030;-62
2021/09/10 04:28:40;;;;;;;19.92;12.25;;;;;;;;;;5014094;28;20053;-62
2021/09/10 04:31:05;;;;;;;18.30;13.02;;;;;;;;;;5013379;28;20484;-62
2021/09/10 04:33:30;;;;;;;20.42;13.18;;;;;;;;;;5014022;28;20364;-62
2021/09/10 04:35:56;;;;;;;22.55;13.05;;;;;;;;;;5013460;28;20040;-62
2021/09/10 04:38:21;;;;;;;24.83;14.60;;;;;;;;;;5013763;28;20125;-62
2021/09/10 04:40:46;;;;;;;22.98;13.73;;;;;;;;;;5012043;28;20030;-62
2021/09/10 04:43:11;;;;;;;25.40;14.05;;;;;;;;;;5013733;28;20022;-62
2021/09/10 04:45:37;;;;;;;22.08;14.40;;;;;;;;;;5013260;28;20472;-62
2021/09/10 04:48:02;;;;;;;18.50;13.25;;;;;;;;;;5013548;28;20425;-62
2021/09/10 04:50:27;;;;;;;21.23;14.18;;;;;;;;;;5013120;28;20036;-63
2021/09/10 04:52:53;;;;;;;19.52;14.05;;;;;;;;;;5013685;28;20105;-62
2021/09/10 04:55:18;;;;;;;27.95;14.15;;;;;;;;;;5013047;28;20106;-62
2021/09/10 04:57:43;;;;;;;25.88;13.63;;;;;;;;;;5013515;28;20033;-62
2021/09/10 05:00:08;;;;;;;24.33;14.07;;;;;;;;;;5012899;28;20022;-62
2021/09/10 05:02:34;;;;;;;22.98;13.90;;;;;;;;;;5013571;28;20134;-62
2021/09/10 05:04:59;;;;;;;21.17;13.57;;;;;;;;;;5012872;28;20093;-63
2021/09/10 05:07:24;;;;;;;21.13;13.80;;;;;;;;;;5012911;28;20053;-63
2021/09/10 05:09:50;;;;;;;22.13;13.40;;;;;;;;;;5013214;28;20038;-63
2021/09/10 05:12:15;;;;;;;21.95;13.85;;;;;;;;;;5013034;28;20037;-63
2021/09/10 05:14:41;;;;;;;20.92;14.00;;;;;;;;;;5013301;28;20029;-63
2021/09/10 05:17:06;;;;;;;24.52;14.23;;;;;;;;;;5011783;28;20038;-63
2021/09/10 05:19:31;;;;;;;24.67;14.50;;;;;;;;;;5013362;28;20457;-63
2021/09/10 05:21:56;;;;;;;22.52;14.48;;;;;;;;;;5011499;28;20116;-63
2021/09/10 05:24:22;;;;;;;18.63;12.57;;;;;;;;;;5013377;28;20021;-63
2021/09/10 05:26:47;;;;;;;22.05;13.30;;;;;;;;;;5012880;28;20121;-63
2021/09/10 05:29:13;;;;;;;19.85;12.90;;;;;;;;;;5013264;28;20083;-63
2021/09/10 05:31:38;;;;;;;22.52;13.38;;;;;;;;;;5012885;28;20030;-63
2021/09/10 05:34:04;;;;;;;19.48;12.98;;;;;;;;;;5013417;28;20384;-63
2021/09/10 05:36:29;;;;;;;20.38;12.88;;;;;;;;;;5012778;28;20507;-62
2021/09/10 05:38:54;;;;;;;20.42;13.40;;;;;;;;;;5013228;28;20028;-63
2021/09/10 05:41:19;;;;;;;21.75;13.65;;;;;;;;;;5011672;28;20072;-63
2021/09/10 05:43:45;;;;;;;22.15;13.18;;;;;;;;;;5013045;28;20018;-63
2021/09/10 05:46:10;;;;;;;22.30;13.25;;;;;;;;;;5012584;28;20033;-63
2021/09/10 05:48:36;;;;;;;20.55;14.13;;;;;;;;;;5013100;28;20468;-64
2021/09/10 05:51:01;;;;;;;20.85;12.23;;;;;;;;;;5012944;28;20026;-63
2021/09/10 05:53:27;;;;;;;19.65;13.30;;;;;;;;;;5011754;28;20029;-63
2021/09/10 05:55:53;;;;;;;23.40;14.07;;;;;;;;;;5010965;28;20038;-63
2021/09/10 05:58:18;;;;;;;19.77;13.48;;;;;;;;;;5011782;28;20354;-63
2021/09/10 06:00:43;;;;;;;19.35;13.35;;;;;;;;;;5012412;28;20500;-63
2021/09/10 06:03:08;;;;;;;26.35;14.40;;;;;;;;;;5011751;28;20025;-63
2021/09/10 06:05:33;;;;;;;24.08;14.43;;;;;;;;;;5012231;28;20088;-63
2021/09/10 06:07:59;;;;;;;20.23;14.63;;;;;;;;;;5011594;28;20022;-64
2021/09/10 06:10:24;;;;;;;22.00;14.25;;;;;;;;;;5012372;28;20103;-63
2021/09/10 06:12:49;;;;;;;19.67;13.98;;;;;;;;;;5012861;28;20038;-63
2021/09/10 06:15:15;;;;;;;22.02;13.45;;;;;;;;;;5012934;28;20022;-63
2021/09/10 06:17:40;;;;;;;19.10;13.35;;;;;;;;;;5016691;28;20034;-63
2021/09/10 06:20:06;;;;;;;23.42;14.27;;;;;;;;;;5016042;28;20423;-63
2021/09/10 06:22:31;;;;;;;21.70;13.35;;;;;;;;;;5016371;28;20034;-63
2021/09/10 06:24:57;;;;;;;18.70;12.57;;;;;;;;;;5016637;28;20014;-63
2021/09/10 06:27:22;;;;;;;22.42;12.40;;;;;;;;;;5014413;28;20530;-65
2021/09/10 06:29:47;;;;;;;21.08;12.75;;;;;;;;;;5016425;28;20029;-64
2021/09/10 06:32:12;;;;;;;19.50;12.50;;;;;;;;;;5015985;28;20037;-63
2021/09/10 06:34:38;;;;;;;18.02;11.90;;;;;;;;;;5016461;28;20025;-64
2021/09/10 06:37:03;;;;;;;21.52;12.90;;;;;;;;;;5015791;28;20579;-63
2021/09/10 06:39:29;;;;;;;19.80;12.00;;;;;;;;;;5016476;28;20018;-64
2021/09/10 06:41:56;;;;;;;20.00;12.77;;;;;;;;;;5015320;28;20038;-64
2021/09/10 06:44:21;;;;;;;15.57;11.90;;;;;;;;;;5016007;28;20021;-64
2021/09/10 06:46:46;;;;;;;18.80;10.45;;;;;;;;;;5015759;28;20388;-63
2021/09/10 06:49:12;;;;;;;21.00;12.30;;;;;;;;;;5016225;28;20400;-64
2021/09/10 06:51:37;;;;;;;17.10;11.25;;;;;;;;;;5015502;28;20639;-64
2021/09/10 06:54:02;;;;;;;17.10;10.70;;;;;;;;;;5015932;28;20104;-64
2021/09/10 06:56:27;;;;;;;16.15;10.25;;;;;;;;;;5015375;28;20038;-64
2021/09/10 06:58:52;;;;;;;18.80;11.15;;;;;;;;;;5015914;28;20072;-64
2021/09/10 07:01:18;;;;;;;14.93;9.75;;;;;;;;;;5015353;28;20429;-65
2021/09/10 07:03:45;;;;;;;16.00;10.55;;;;;;;;;;5016100;28;20084;-64
2021/09/10 07:06:10;;;;;;;16.05;9.95;;;;;;;;;;5014298;28;20026;-64
2021/09/10 07:08:35;;;;;;;16.92;10.57;;;;;;;;;;5015533;28;20050;-64
2021/09/10 07:11:01;;;;;;;16.20;10.25;;;;;;;;;;5015622;28;20119;-64
2021/09/10 07:13:27;;;;;;;15.93;9.07;;;;;;;;;;5015577;28;20022;-65
2021/09/10 07:15:52;;;;;;;16.50;10.80;;;;;;;;;;5014874;28;20037;-62
2021/09/10 07:18:19;;;;;;;14.70;9.30;;;;;;;;;;5015330;28;20117;-63
2021/09/10 07:20:45;;;;;;;16.67;9.38;;;;;;;;;;5014897;28;20116;-63
2021/09/10 07:23:10;;;;;;;16.77;9.55;;;;;;;;;;5015357;28;20493;-63
2021/09/10 07:25:36;;;;;;;16.33;9.88;;;;;;;;;;5014951;28;20037;-63
2021/09/10 07:28:01;;;;;;;16.83;9.93;;;;;;;;;;5014568;28;20025;-63
2021/09/10 07:30:26;;;;;;;13.07;8.85;;;;;;;;;;5014681;28;20103;-63
2021/09/10 07:32:51;;;;;;;11.18;9.00;;;;;;;;;;5015289;28;20018;-63
2021/09/10 07:35:16;;;;;;;13.35;8.88;;;;;;;;;;5014555;28;20025;-65
2021/09/10 07:37:44;;;;;;;12.63;8.80;;;;;;;;;;5015227;28;20026;-63
2021/09/10 07:40:10;;;;;;;15.00;9.10;;;;;;;;;;5014703;28;20026;-62
2021/09/10 07:42:35;;;;;;;12.40;8.82;;;;;;;;;;5014875;28;20029;-63
2021/09/10 07:45:01;;;;;;;13.95;9.07;;;;;;;;;;5014721;28;20469;-65
2021/09/10 07:47:26;;;;;;;14.85;8.95;;;;;;;;;;5014927;28;20522;-65
2021/09/10 07:49:51;;;;;;;15.10;8.90;;;;;;;;;;5014940;28;20025;-63
2021/09/10 07:52:16;;;;;;;19.13;8.93;;;;;;;;;;5014401;28;20038;-62
2021/09/10 07:54:41;;;;;;;13.20;9.07;;;;;;;;;;5014603;28;20030;-63
2021/09/10 07:57:07;;;;;;;13.68;9.50;;;;;;;;;;5014151;28;20050;-63
2021/09/10 07:59:32;;;;;;;15.70;8.43;;;;;;;;;;5014586;28;20022;-64
2021/09/10 08:01:57;;;;;;;15.20;8.50;;;;;;;;;;5014129;28;20389;-64
2021/09/10 08:04:24;;;;;;;15.65;8.93;;;;;;;;;;4996983;28;20050;-65
2021/09/10 08:06:49;;;;;;;12.82;8.95;;;;;;;;;;5014186;28;20030;-64
2021/09/10 08:09:14;;;;;;;22.80;8.93;;;;;;;;;;5014251;28;20053;-64
2021/09/10 08:11:39;;;;;;;10.85;8.32;;;;;;;;;;5013965;28;20042;-64
2021/09/10 08:14:08;;;;;;;11.43;7.90;;;;;;;;;;5014408;28;20034;-65
2021/09/10 08:16:33;;;;;;;21.98;9.20;;;;;;;;;;5013932;28;20042;-64
2021/09/10 08:18:59;;;;;;;13.48;8.68;;;;;;;;;;5014189;28;20068;-64
2021/09/10 08:21:24;;;;;;;14.18;9.07;;;;;;;;;;5013941;28;20042;-64
2021/09/10 08:23:49;;;;;;;16.20;9.63;;;;;;;;;;5014239;28;20084;-64
2021/09/10 08:26:14;;;;;;;15.10;8.73;;;;;;;;;;5013669;28;20026;-64
2021/09/10 08:28:40;;;;;;;11.93;9.00;;;;;;;;;;5012753;28;20512;-64
2021/09/10 08:31:05;;;;;;;16.83;8.88;;;;;;;;;;5013785;28;20053;-64
2021/09/10 08:33:30;;;;;;;12.85;8.75;;;;;;;;;;5014056;28;20117;-64
2021/09/10 08:35:55;;;;;;;13.50;7.85;;;;;;;;;;5013397;28;20116;-62
2021/09/10 08:38:20;;;;;;;12.55;8.45;;;;;;;;;;5013419;28;20041;-62
2021/09/10 08:40:46;;;;;;;10.63;7.88;;;;;;;;;;5012919;28;20030;-64
2021/09/10 08:43:11;;;;;;;12.27;7.47;;;;;;;;;;5013664;28;20037;-64
2021/09/10 08:45:37;;;;;;;12.88;7.20;;;;;;;;;;5013454;28;20040;-64
2021/09/10 08:48:02;;;;;;;11.32;6.63;;;;;;;;;;5013759;28;20416;-64
2021/09/10 08:50:27;;;;;;;10.70;7.43;;;;;;;;;;5013352;28;20026;-64
2021/09/10 08:52:52;;;;;;;12.80;6.80;;;;;;;;;;5013844;28;20026;-64
2021/09/10 08:55:18;;;;;;;9.38;5.90;;;;;;;;;;5013102;28;20515;-63
2021/09/10 08:57:50;;;;;;;8.48;5.45;;;;;;;;;;5012558;28;20037;-64
2021/09/10 09:00:15;;;;;;;11.15;5.85;;;;;;;;;;5011816;28;20024;-62
2021/09/10 09:02:40;;;;;;;11.43;6.30;;;;;;;;;;5013734;28;20022;-63
2021/09/10 09:05:06;;;;;;;8.57;6.47;;;;;;;;;;5013008;28;20432;-61
2021/09/10 09:07:31;;;;;;;10.13;6.60;;;;;;;;;;5013479;28;20160;-65
2021/09/10 09:09:57;;;;;;;8.77;6.13;;;;;;;;;;5013311;28;20050;-64
2021/09/10 09:12:28;;;;;;;9.63;6.15;;;;;;;;;;5013078;28;20026;-62
2021/09/10 09:14:57;;;;;;;6.97;5.05;;;;;;;;;;5013591;28;20026;-63
2021/09/10 09:17:23;;;;;;;6.68;5.43;;;;;;;;;;5012646;28;20369;-62
2021/09/10 09:20:07;;;;;;;8.00;5.90;;;;;;;;;;5013822;28;20022;-63
2021/09/10 09:22:35;;;;;;;9.75;5.72;;;;;;;;;;5013035;28;20065;-63
2021/09/10 09:25:07;;;;;;;11.95;6.15;;;;;;;;;;5013230;28;20029;-62
2021/09/10 09:27:32;;;;;;;10.13;5.80;;;;;;;;;;5033180;28;20021;-63
2021/09/10 09:29:57;;;;;;;9.88;5.72;;;;;;;;;;5032999;28;20043;-63
2021/09/10 09:32:23;;;;;;;6.80;5.30;;;;;;;;;;5032581;28;20037;-62
2021/09/10 09:34:48;;;;;;;7.68;5.10;;;;;;;;;;5033068;28;20067;-62
2021/09/10 09:37:14;;;;;;;11.82;5.50;;;;;;;;;;5032385;28;20041;-62
2021/09/10 09:39:49;;;;;;;8.05;5.05;;;;;;;;;;5031771;28;20251;-63
2021/09/10 09:42:15;;;;;;;7.97;5.07;;;;;;;;;;5032557;28;20047;-63
2021/09/10 09:44:43;;;;;;;11.48;5.10;;;;;;;;;;5031560;28;20104;-62
2021/09/10 09:47:08;;;;;;;9.50;4.93;;;;;;;;;;5031237;28;20032;-63
2021/09/10 09:49:33;;;;;;;7.45;4.72;;;;;;;;;;5031707;28;20017;-63
2021/09/10 09:52:02;;;;;;;8.38;4.65;;;;;;;;;;5035832;28;20411;-63
2021/09/10 09:54:27;;;;;;;8.93;4.30;;;;;;;;;;5036808;28;20400;-63
2021/09/10 09:56:55;;;;;;;8.07;4.57;;;;;;;;;;5036335;28;20291;-63
2021/09/10 09:59:21;;;;;;;6.50;4.78;;;;;;;;;;5035710;28;20456;-64
2021/09/10 10:01:46;;;;;;;8.65;4.63;;;;;;;;;;5036233;28;20041;-63
2021/09/10 10:04:11;;;;;;;10.82;4.68;;;;;;;;;;5036609;28;20434;-63
2021/09/10 10:06:36;;;;;;;6.60;4.20;;;;;;;;;;5036155;28;20531;-63
2021/09/10 10:09:11;;;;;;;6.57;4.47;;;;;;;;;;5036330;28;20804;-64
2021/09/10 10:11:41;;;;;;;8.43;4.78;;;;;;;;;;5035009;28;20029;-63
2021/09/10 10:14:07;;;;;;;6.53;4.35;;;;;;;;;;5035347;28;20017;-63
2021/09/10 10:16:32;;;;;;;9.48;4.45;;;;;;;;;;5035981;28;20068;-63
2021/09/10 10:18:57;;;;;;;7.83;4.03;;;;;;;;;;5036326;28;20017;-63
2021/09/10 10:21:23;;;;;;;7.25;3.95;;;;;;;;;;5036006;28;20285;-63
2021/09/10 10:23:49;;;;;;;7.50;4.30;;;;;;;;;;5034947;28;20028;-63
2021/09/10 10:26:20;;;;;;;8.18;4.63;;;;;;;;;;5036216;28;20029;-63
2021/09/10 10:28:46;;;;;;;8.15;4.78;;;;;;;;;;5036131;28;20478;-63
2021/09/10 10:31:12;;;;;;;7.50;4.88;;;;;;;;;;5035718;28;20033;-63
2021/09/10 10:33:56;;;;;;;7.38;5.38;;;;;;;;;;5035946;28;20028;-63
2021/09/10 10:36:34;;;;;;;8.35;4.95;;;;;;;;;;5035443;28;20073;-63
2021/09/10 10:39:13;;;;;;;7.20;5.20;;;;;;;;;;5035907;28;20029;-63
2021/09/10 10:41:48;;;;;;;6.15;4.75;;;;;;;;;;5035525;28;20121;-63
2021/09/10 10:44:32;;;;;;;7.38;4.68;;;;;;;;;;5036054;28;20049;-63
2021/09/10 10:47:01;;;;;;;9.70;4.97;;;;;;;;;;5035379;28;20117;-63
2021/09/10 10:49:30;;;;;;;10.73;5.28;;;;;;;;;;5035824;28;20021;-63
2021/09/10 10:51:55;;;;;;;7.10;5.23;;;;;;;;;;5035291;28;20041;-63
2021/09/10 10:54:25;;;;;;;6.88;5.40;;;;;;;;;;5034390;28;20255;-63
2021/09/10 10:56:50;;;;;;;7.63;5.20;;;;;;;;;;5035016;28;20045;-63
2021/09/10 10:59:16;;;;;;;7.32;5.10;;;;;;;;;;5035650;28;20120;-63
2021/09/10 11:02:00;;;;;;;9.45;5.60;;;;;;;;;;5034459;28;20037;-63
2021/09/10 11:04:25;;;;;;;10.25;5.80;;;;;;;;;;5035524;28;20025;-63
2021/09/10 11:06:52;;;;;;;9.38;5.45;;;;;;;;;;5034935;28;20099;-63
2021/09/10 11:09:17;;;;;;;7.18;5.68;;;;;;;;;;5033847;28;20050;-63
2021/09/10 11:11:42;;;;;;;8.00;5.07;;;;;;;;;;5034920;28;20060;-63
2021/09/10 11:14:07;;;;;;;8.10;5.45;;;;;;;;;;5035431;28;20041;-63
2021/09/10 11:16:33;;;;;;;9.63;5.70;;;;;;;;;;5034919;28;20092;-63
2021/09/10 11:18:58;;;;;;;6.65;5.30;;;;;;;;;;5035320;28;20021;-63
2021/09/10 11:21:27;;;;;;;9.20;5.68;;;;;;;;;;5033416;28;20064;-63
2021/09/10 11:23:52;;;;;;;10.90;6.10;;;;;;;;;;5034085;28;20026;-63
2021/09/10 11:26:18;;;;;;;7.78;6.28;;;;;;;;;;5034828;28;20057;-62
2021/09/10 11:28:43;;;;;;;14.63;7.07;;;;;;;;;;5035005;28;20025;-63
2021/09/10 11:31:09;;;;;;;9.68;6.72;;;;;;;;;;5034637;28;20022;-63
2021/09/10 11:33:40;;;;;;;9.48;5.93;;;;;;;;;;5034917;28;20049;-63
2021/09/10 11:36:05;;;;;;;9.68;5.95;;;;;;;;;;5034365;28;20124;-63
2021/09/10 11:38:31;;;;;;;7.97;6.40;;;;;;;;;;5033685;28;20113;-63
2021/09/10 11:40:57;;;;;;;8.75;6.70;;;;;;;;;;5034701;28;20026;-63
2021/09/10 11:43:24;;;;;;;10.30;7.13;;;;;;;;;;5034854;28;20024;-63
2021/09/10 11:45:50;;;;;;;9.80;7.43;;;;;;;;;;5034421;28;20380;-63
2021/09/10 11:48:19;;;;;;;10.85;7.00;;;;;;;;;;5033545;28;20026;-63
2021/09/10 11:50:45;;;;;;;8.52;7.15;;;;;;;;;;5034338;28;20041;-64
2021/09/10 11:53:39;;;;;;;9.60;7.50;;;;;;;;;;5034997;28;20361;-63
2021/09/10 11:56:06;;;;;;;11.73;6.88;;;;;;;;;;5024889;28;20120;-63
2021/09/10 11:58:32;;;;;;;11.52;7.80;;;;;;;;;;5034596;28;20029;-63
2021/09/10 12:01:30;;;;;;;11.32;8.15;;;;;;;;;;5033900;28;20511;-63
2021/09/10 12:03:57;;;;;;;12.23;7.10;;;;;;;;;;5011856;28;20091;-63
2021/09/10 12:06:23;;;;;;;11.15;7.40;;;;;;;;;;5034011;28;20124;-63
2021/09/10 12:09:24;;;;;;;9.52;6.68;;;;;;;;;;5034236;28;20038;-63
2021/09/10 12:12:06;;;;;;;12.23;7.13;;;;;;;;;;4992202;28;20041;-63
2021/09/10 12:14:35;;;;;;;12.48;6.75;;;;;;;;;;5029905;28;20040;-63
2021/09/10 12:17:03;;;;;;;9.15;6.70;;;;;;;;;;5033695;28;20034;-63
2021/09/10 12:19:28;;;;;;;9.70;6.78;;;;;;;;;;5032843;28;20091;-63
2021/09/10 12:21:55;;;;;;;9.63;6.40;;;;;;;;;;5032217;28;20056;-63
2021/09/10 12:24:20;;;;;;;9.20;5.82;;;;;;;;;;5033942;28;20026;-63
2021/09/10 12:26:49;;;;;;;9.55;6.38;;;;;;;;;;5032240;28;20040;-62
2021/09/10 12:29:18;;;;;;;12.10;7.33;;;;;;;;;;5034044;28;20087;-62
2021/09/10 12:31:44;;;;;;;9.20;7.35;;;;;;;;;;5033484;28;20274;-63
2021/09/10 12:34:09;;;;;;;11.85;6.72;;;;;;;;;;5034018;28;20368;-63
2021/09/10 12:36:34;;;;;;;10.48;6.38;;;;;;;;;;5031980;28;20049;-62
2021/09/10 12:38:59;;;;;;;9.85;6.00;;;;;;;;;;5033591;28;20105;-63
2021/09/10 12:41:25;;;;;;;7.20;5.05;;;;;;;;;;5033271;28;20048;-63
2021/09/10 12:43:51;;;;;;;8.80;5.30;;;;;;;;;;5033823;28;20464;-63
2021/09/10 12:46:16;;;;;;;7.85;5.38;;;;;;;;;;5033137;28;20369;-63
2021/09/10 12:48:41;;;;;;;8.63;5.15;;;;;;;;;;5033475;28;20039;-63
2021/09/10 12:51:07;;;;;;;8.20;5.47;;;;;;;;;;5033054;28;20133;-63
2021/09/10 12:53:32;;;;;;;8.43;5.70;;;;;;;;;;5033708;28;20099;-63
2021/09/10 12:55:58;;;;;;;11.55;5.95;;;;;;;;;;5032881;28;20377;-63
2021/09/10 12:58:23;;;;;;;9.85;6.07;;;;;;;;;;5033280;28;20039;-63
2021/09/10 13:00:48;;;;;;;10.52;5.75;;;;;;;;;;5033035;28;20037;-63
2021/09/10 13:03:13;;;;;;;9.68;5.90;;;;;;;;;;5033331;28;20060;-63
2021/09/10 13:05:39;;;;;;;9.45;5.53;;;;;;;;;;5033281;28;20026;-62
2021/09/10 13:08:04;;;;;;;8.13;5.32;;;;;;;;;;5031962;28;20416;-63
2021/09/10 13:10:30;;;;;;;8.13;5.35;;;;;;;;;;5032537;28;20152;-63
2021/09/10 13:12:55;;;;;;;10.45;4.63;;;;;;;;;;5033238;28;20036;-63
2021/09/10 13:15:21;;;;;;;6.88;4.50;;;;;;;;;;5032588;28;20030;-63
2021/09/10 13:17:47;;;;;;;7.25;4.38;;;;;;;;;;5033053;28;20483;-63
2021/09/10 13:20:12;;;;;;;9.68;4.22;;;;;;;;;;5032510;28;20022;-63
2021/09/10 13:22:37;;;;;;;7.93;4.35;;;;;;;;;;5033201;28;20027;-63
2021/09/10 13:25:04;;;;;;;8.00;4.35;;;;;;;;;;5032294;28;20017;-63
2021/09/10 13:27:29;;;;;;;13.05;4.40;;;;;;;;;;5033147;28;20018;-63
2021/09/10 13:29:56;;;;;;;6.35;4.30;;;;;;;;;;5032905;28;20074;-63
2021/09/10 13:32:21;;;;;;;6.60;4.40;;;;;;;;;;5032342;28;20472;-63
2021/09/10 13:34:46;;;;;;;5.93;4.13;;;;;;;;;;5032794;28;20022;-63
2021/09/10 13:37:12;;;;;;;8.27;4.30;;;;;;;;;;5032477;28;20216;-63
2021/09/10 13:39:38;;;;;;;5.93;4.32;;;;;;;;;;5031612;28;20021;-63
2021/09/10 13:42:03;;;;;;;7.25;4.40;;;;;;;;;;5032385;28;20029;-63
2021/09/10 13:44:28;;;;;;;8.27;4.40;;;;;;;;;;5032863;28;20072;-63
2021/09/10 13:46:53;;;;;;;5.45;3.92;;;;;;;;;;5031235;28;20557;-63
2021/09/10 13:49:19;;;;;;;5.78;4.30;;;;;;;;;;5032774;28;20045;-63
2021/09/10 13:51:44;;;;;;;9.18;4.20;;;;;;;;;;5032406;28;20049;-63
2021/09/10 13:54:09;;;;;;;8.43;4.28;;;;;;;;;;5032674;28;20029;-62
2021/09/10 13:56:34;;;;;;;8.70;4.20;;;;;;;;;;5032298;28;20073;-62
2021/09/10 13:59:00;;;;;;;6.20;4.20;;;;;;;;;;5032720;28;20060;-64
2021/09/10 14:01:25;;;;;;;7.35;4.32;;;;;;;;;;5032353;28;20034;-63
2021/09/10 14:03:50;;;;;;;6.88;4.22;;;;;;;;;;5032581;28;20084;-63
2021/09/10 14:06:15;;;;;;;7.45;3.97;;;;;;;;;;5032305;28;20033;-64
2021/09/10 14:08:41;;;;;;;6.75;4.05;;;;;;;;;;5032716;28;20088;-62
2021/09/10 14:11:06;;;;;;;6.90;4.68;;;;;;;;;;5032178;28;20057;-63
2021/09/10 14:13:31;;;;;;;5.63;4.00;;;;;;;;;;5032765;28;20028;-64
2021/09/10 14:15:56;;;;;;;9.30;4.30;;;;;;;;;;5031964;28;20026;-63
2021/09/10 14:18:22;;;;;;;6.13;3.80;;;;;;;;;;5032394;28;20037;-63
2021/09/10 14:20:47;;;;;;;7.18;4.05;;;;;;;;;;5032365;28;20030;-63
2021/09/10 14:23:12;;;;;;;9.20;4.30;;;;;;;;;;5032755;28;20025;-63